sensor_id;sensor_type;location;lat;lon;timestamp;P1;durP1;ratioP1;P2;durP2;ratioP2
31482;SDS011;18103;52.246;8.052;2023-05-21T00:01:04;8.23;;;3.00;;
31482;SDS011;18103;52.246;8.052;2023-05-21T00:03:30;3.90;;;2.77;;
31482;SDS011;18103;52.246;8.052;2023-05-21T00:05:59;3.63;;;2.73;;
31482;SDS011;18103;52.246;8.052;2023-05-21T00:08:27;4.63;;;3.43;;
31482;SDS011;18103;52.246;8.052;2023-05-21T00:10:53;3.87;;;2.80;;
31482;SDS011;18103;52.246;8.052;2023-05-21T00:13:21;6.20;;;2.63;;
31482;SDS011;18103;52.246;8.052;2023-05-21T00:15:46;6.53;;;2.70;;
31482;SDS011;18103;52.246;8.052;2023-05-21T00:18:14;5.90;;;3.43;;
31482;SDS011;18103;52.246;8.052;2023-05-21T00:20:42;4.40;;;2.90;;
31482;SDS011;18103;52.246;8.052;2023-05-21T00:23:07;4.20;;;3.10;;
31482;SDS011;18103;52.246;8.052;2023-05-21T00:25:34;7.63;;;3.23;;
31482;SDS011;18103;52.246;8.052;2023-05-21T00:28:01;4.40;;;2.87;;
31482;SDS011;18103;52.246;8.052;2023-05-21T00:30:29;6.13;;;3.37;;
31482;SDS011;18103;52.246;8.052;2023-05-21T00:32:54;7.27;;;3.30;;
31482;SDS011;18103;52.246;8.052;2023-05-21T00:35:26;6.90;;;3.50;;
31482;SDS011;18103;52.246;8.052;2023-05-21T00:37:54;4.70;;;2.87;;
31482;SDS011;18103;52.246;8.052;2023-05-21T00:40:19;5.20;;;3.23;;
31482;SDS011;18103;52.246;8.052;2023-05-21T00:42:44;6.07;;;3.37;;
31482;SDS011;18103;52.246;8.052;2023-05-21T00:45:12;8.60;;;3.47;;
31482;SDS011;18103;52.246;8.052;2023-05-21T00:47:38;6.17;;;3.00;;
31482;SDS011;18103;52.246;8.052;2023-05-21T00:50:08;4.37;;;3.07;;
31482;SDS011;18103;52.246;8.052;2023-05-21T00:52:34;6.03;;;3.30;;
31482;SDS011;18103;52.246;8.052;2023-05-21T00:55:06;4.53;;;3.33;;
31482;SDS011;18103;52.246;8.052;2023-05-21T00:57:32;6.03;;;3.73;;
31482;SDS011;18103;52.246;8.052;2023-05-21T00:59:58;4.93;;;2.93;;
31482;SDS011;18103;52.246;8.052;2023-05-21T01:02:24;6.43;;;3.40;;
31482;SDS011;18103;52.246;8.052;2023-05-21T01:04:50;6.90;;;3.40;;
31482;SDS011;18103;52.246;8.052;2023-05-21T01:07:19;7.33;;;3.37;;
31482;SDS011;18103;52.246;8.052;2023-05-21T01:09:47;4.40;;;3.10;;
31482;SDS011;18103;52.246;8.052;2023-05-21T01:12:15;6.50;;;3.57;;
31482;SDS011;18103;52.246;8.052;2023-05-21T01:14:42;4.57;;;2.97;;
31482;SDS011;18103;52.246;8.052;2023-05-21T01:17:08;5.27;;;3.73;;
31482;SDS011;18103;52.246;8.052;2023-05-21T01:19:34;5.63;;;3.27;;
31482;SDS011;18103;52.246;8.052;2023-05-21T01:22:04;7.20;;;3.47;;
31482;SDS011;18103;52.246;8.052;2023-05-21T01:24:31;5.97;;;3.43;;
31482;SDS011;18103;52.246;8.052;2023-05-21T01:26:59;7.87;;;3.87;;
31482;SDS011;18103;52.246;8.052;2023-05-21T01:29:30;6.73;;;3.30;;
31482;SDS011;18103;52.246;8.052;2023-05-21T01:35:03;7.00;;;3.70;;
31482;SDS011;18103;52.246;8.052;2023-05-21T01:40:14;6.63;;;3.67;;
31482;SDS011;18103;52.246;8.052;2023-05-21T01:42:46;4.70;;;3.23;;
31482;SDS011;18103;52.246;8.052;2023-05-21T01:45:13;9.27;;;3.67;;
31482;SDS011;18103;52.246;8.052;2023-05-21T01:47:40;7.77;;;3.73;;
31482;SDS011;18103;52.246;8.052;2023-05-21T01:50:15;7.70;;;3.43;;
31482;SDS011;18103;52.246;8.052;2023-05-21T01:52:52;8.00;;;3.63;;
31482;SDS011;18103;52.246;8.052;2023-05-21T01:55:27;5.10;;;3.67;;
31482;SDS011;18103;52.246;8.052;2023-05-21T01:57:55;5.93;;;3.50;;
31482;SDS011;18103;52.246;8.052;2023-05-21T02:00:24;6.23;;;3.57;;
31482;SDS011;18103;52.246;8.052;2023-05-21T02:02:55;10.00;;;3.67;;
31482;SDS011;18103;52.246;8.052;2023-05-21T02:05:20;5.53;;;3.50;;
31482;SDS011;18103;52.246;8.052;2023-05-21T02:07:46;6.33;;;3.57;;
31482;SDS011;18103;52.246;8.052;2023-05-21T02:10:14;6.30;;;3.43;;
31482;SDS011;18103;52.246;8.052;2023-05-21T02:12:42;6.57;;;3.67;;
31482;SDS011;18103;52.246;8.052;2023-05-21T02:15:07;6.00;;;3.90;;
31482;SDS011;18103;52.246;8.052;2023-05-21T02:17:33;6.23;;;3.63;;
31482;SDS011;18103;52.246;8.052;2023-05-21T02:19:59;5.00;;;3.53;;
31482;SDS011;18103;52.246;8.052;2023-05-21T02:22:38;7.07;;;3.90;;
31482;SDS011;18103;52.246;8.052;2023-05-21T02:25:05;9.27;;;3.30;;
31482;SDS011;18103;52.246;8.052;2023-05-21T02:27:33;4.93;;;3.50;;
31482;SDS011;18103;52.246;8.052;2023-05-21T02:30:05;7.70;;;3.83;;
31482;SDS011;18103;52.246;8.052;2023-05-21T02:32:34;5.13;;;3.70;;
31482;SDS011;18103;52.246;8.052;2023-05-21T02:35:07;5.70;;;3.43;;
31482;SDS011;18103;52.246;8.052;2023-05-21T02:37:33;7.00;;;3.80;;
31482;SDS011;18103;52.246;8.052;2023-05-21T02:40:02;6.17;;;3.93;;
31482;SDS011;18103;52.246;8.052;2023-05-21T02:42:31;5.57;;;3.90;;
31482;SDS011;18103;52.246;8.052;2023-05-21T02:45:00;7.63;;;4.20;;
31482;SDS011;18103;52.246;8.052;2023-05-21T02:47:30;6.73;;;3.73;;
31482;SDS011;18103;52.246;8.052;2023-05-21T02:49:58;8.40;;;3.57;;
31482;SDS011;18103;52.246;8.052;2023-05-21T02:52:26;7.60;;;3.80;;
31482;SDS011;18103;52.246;8.052;2023-05-21T02:54:57;6.73;;;3.37;;
31482;SDS011;18103;52.246;8.052;2023-05-21T02:57:28;9.90;;;4.07;;
31482;SDS011;18103;52.246;8.052;2023-05-21T02:59:56;9.50;;;3.97;;
31482;SDS011;18103;52.246;8.052;2023-05-21T03:02:23;6.27;;;3.80;;
31482;SDS011;18103;52.246;8.052;2023-05-21T03:04:49;7.53;;;4.20;;
31482;SDS011;18103;52.246;8.052;2023-05-21T03:07:19;6.47;;;4.27;;
31482;SDS011;18103;52.246;8.052;2023-05-21T03:09:45;7.47;;;4.27;;
31482;SDS011;18103;52.246;8.052;2023-05-21T03:12:13;8.23;;;4.20;;
31482;SDS011;18103;52.246;8.052;2023-05-21T03:14:38;6.90;;;4.23;;
31482;SDS011;18103;52.246;8.052;2023-05-21T03:17:08;6.23;;;4.00;;
31482;SDS011;18103;52.246;8.052;2023-05-21T03:19:38;6.57;;;4.40;;
31482;SDS011;18103;52.246;8.052;2023-05-21T03:22:04;7.47;;;4.27;;
31482;SDS011;18103;52.246;8.052;2023-05-21T03:24:32;5.97;;;3.77;;
31482;SDS011;18103;52.246;8.052;2023-05-21T03:27:00;6.57;;;3.87;;
31482;SDS011;18103;52.246;8.052;2023-05-21T03:29:26;7.47;;;3.90;;
31482;SDS011;18103;52.246;8.052;2023-05-21T03:31:54;6.80;;;4.13;;
31482;SDS011;18103;52.246;8.052;2023-05-21T03:34:22;5.93;;;3.50;;
31482;SDS011;18103;52.246;8.052;2023-05-21T03:36:52;5.73;;;3.97;;
31482;SDS011;18103;52.246;8.052;2023-05-21T03:39:17;9.77;;;4.17;;
31482;SDS011;18103;52.246;8.052;2023-05-21T03:41:45;12.17;;;4.80;;
31482;SDS011;18103;52.246;8.052;2023-05-21T03:44:13;6.63;;;4.03;;
31482;SDS011;18103;52.246;8.052;2023-05-21T03:46:40;6.60;;;4.00;;
31482;SDS011;18103;52.246;8.052;2023-05-21T03:49:06;6.97;;;4.03;;
31482;SDS011;18103;52.246;8.052;2023-05-21T03:51:36;6.63;;;4.43;;
31482;SDS011;18103;52.246;8.052;2023-05-21T03:54:03;7.63;;;4.20;;
31482;SDS011;18103;52.246;8.052;2023-05-21T03:56:29;7.10;;;3.90;;
31482;SDS011;18103;52.246;8.052;2023-05-21T03:58:55;5.90;;;4.20;;
31482;SDS011;18103;52.246;8.052;2023-05-21T04:01:22;8.70;;;4.40;;
31482;SDS011;18103;52.246;8.052;2023-05-21T04:03:48;8.87;;;4.53;;
31482;SDS011;18103;52.246;8.052;2023-05-21T04:06:13;9.30;;;4.57;;
31482;SDS011;18103;52.246;8.052;2023-05-21T04:08:39;5.80;;;3.90;;
31482;SDS011;18103;52.246;8.052;2023-05-21T04:11:08;8.63;;;4.87;;
31482;SDS011;18103;52.246;8.052;2023-05-21T04:13:33;7.57;;;4.23;;
31482;SDS011;18103;52.246;8.052;2023-05-21T04:15:59;10.20;;;4.87;;
31482;SDS011;18103;52.246;8.052;2023-05-21T04:18:26;6.27;;;3.97;;
31482;SDS011;18103;52.246;8.052;2023-05-21T04:20:54;7.07;;;4.73;;
31482;SDS011;18103;52.246;8.052;2023-05-21T04:23:23;11.47;;;4.67;;
31482;SDS011;18103;52.246;8.052;2023-05-21T04:25:53;6.97;;;4.30;;
31482;SDS011;18103;52.246;8.052;2023-05-21T04:28:20;7.40;;;4.07;;
31482;SDS011;18103;52.246;8.052;2023-05-21T04:30:52;5.20;;;4.13;;
31482;SDS011;18103;52.246;8.052;2023-05-21T04:33:17;8.10;;;4.57;;
31482;SDS011;18103;52.246;8.052;2023-05-21T04:35:48;7.40;;;4.20;;
31482;SDS011;18103;52.246;8.052;2023-05-21T04:38:17;6.93;;;3.87;;
31482;SDS011;18103;52.246;8.052;2023-05-21T04:40:49;6.77;;;4.10;;
31482;SDS011;18103;52.246;8.052;2023-05-21T04:43:15;7.77;;;4.60;;
31482;SDS011;18103;52.246;8.052;2023-05-21T04:45:52;8.27;;;4.30;;
31482;SDS011;18103;52.246;8.052;2023-05-21T04:48:18;8.43;;;4.73;;
31482;SDS011;18103;52.246;8.052;2023-05-21T04:50:46;7.63;;;4.53;;
31482;SDS011;18103;52.246;8.052;2023-05-21T04:53:12;7.37;;;4.13;;
31482;SDS011;18103;52.246;8.052;2023-05-21T04:55:43;5.97;;;4.17;;
31482;SDS011;18103;52.246;8.052;2023-05-21T04:58:08;6.10;;;4.23;;
31482;SDS011;18103;52.246;8.052;2023-05-21T05:00:36;8.37;;;4.37;;
31482;SDS011;18103;52.246;8.052;2023-05-21T05:03:06;7.73;;;4.27;;
31482;SDS011;18103;52.246;8.052;2023-05-21T05:05:31;6.63;;;3.80;;
31482;SDS011;18103;52.246;8.052;2023-05-21T05:07:59;9.63;;;4.30;;
31482;SDS011;18103;52.246;8.052;2023-05-21T05:10:25;6.47;;;4.57;;
31482;SDS011;18103;52.246;8.052;2023-05-21T05:12:50;10.73;;;5.03;;
31482;SDS011;18103;52.246;8.052;2023-05-21T05:15:15;6.43;;;4.27;;
31482;SDS011;18103;52.246;8.052;2023-05-21T05:17:41;7.67;;;4.70;;
31482;SDS011;18103;52.246;8.052;2023-05-21T05:20:14;8.00;;;4.17;;
31482;SDS011;18103;52.246;8.052;2023-05-21T05:22:40;6.37;;;4.37;;
31482;SDS011;18103;52.246;8.052;2023-05-21T05:25:08;7.70;;;4.03;;
31482;SDS011;18103;52.246;8.052;2023-05-21T05:27:33;5.23;;;4.10;;
31482;SDS011;18103;52.246;8.052;2023-05-21T05:29:58;11.13;;;4.03;;
31482;SDS011;18103;52.246;8.052;2023-05-21T05:32:24;6.70;;;4.17;;
31482;SDS011;18103;52.246;8.052;2023-05-21T05:34:52;6.47;;;3.90;;
31482;SDS011;18103;52.246;8.052;2023-05-21T05:37:17;11.13;;;4.97;;
31482;SDS011;18103;52.246;8.052;2023-05-21T05:39:42;8.67;;;4.27;;
31482;SDS011;18103;52.246;8.052;2023-05-21T05:42:10;10.37;;;4.30;;
31482;SDS011;18103;52.246;8.052;2023-05-21T05:44:35;7.53;;;4.40;;
31482;SDS011;18103;52.246;8.052;2023-05-21T05:47:01;8.40;;;4.30;;
31482;SDS011;18103;52.246;8.052;2023-05-21T05:49:33;9.30;;;4.53;;
31482;SDS011;18103;52.246;8.052;2023-05-21T05:52:00;4.73;;;3.60;;
31482;SDS011;18103;52.246;8.052;2023-05-21T05:54:26;10.23;;;4.23;;
31482;SDS011;18103;52.246;8.052;2023-05-21T05:56:54;7.13;;;4.20;;
31482;SDS011;18103;52.246;8.052;2023-05-21T05:59:24;5.90;;;4.03;;
31482;SDS011;18103;52.246;8.052;2023-05-21T06:01:51;9.63;;;4.73;;
31482;SDS011;18103;52.246;8.052;2023-05-21T06:04:17;6.20;;;4.13;;
31482;SDS011;18103;52.246;8.052;2023-05-21T06:06:45;9.17;;;4.43;;
31482;SDS011;18103;52.246;8.052;2023-05-21T06:09:12;14.07;;;4.40;;
31482;SDS011;18103;52.246;8.052;2023-05-21T06:11:38;7.17;;;3.97;;
31482;SDS011;18103;52.246;8.052;2023-05-21T06:14:03;7.90;;;4.70;;
31482;SDS011;18103;52.246;8.052;2023-05-21T06:16:32;9.53;;;4.40;;
31482;SDS011;18103;52.246;8.052;2023-05-21T06:18:57;10.50;;;4.50;;
31482;SDS011;18103;52.246;8.052;2023-05-21T06:21:23;7.63;;;4.53;;
31482;SDS011;18103;52.246;8.052;2023-05-21T06:23:48;10.13;;;4.83;;
31482;SDS011;18103;52.246;8.052;2023-05-21T06:26:14;11.27;;;4.60;;
31482;SDS011;18103;52.246;8.052;2023-05-21T06:28:43;8.37;;;5.10;;
31482;SDS011;18103;52.246;8.052;2023-05-21T06:31:10;7.23;;;4.47;;
31482;SDS011;18103;52.246;8.052;2023-05-21T06:33:38;6.87;;;4.37;;
31482;SDS011;18103;52.246;8.052;2023-05-21T06:36:04;10.20;;;4.40;;
31482;SDS011;18103;52.246;8.052;2023-05-21T06:38:29;6.73;;;4.63;;
31482;SDS011;18103;52.246;8.052;2023-05-21T06:40:57;5.57;;;4.27;;
31482;SDS011;18103;52.246;8.052;2023-05-21T06:43:28;10.50;;;4.63;;
31482;SDS011;18103;52.246;8.052;2023-05-21T06:45:54;7.73;;;4.83;;
31482;SDS011;18103;52.246;8.052;2023-05-21T06:48:22;9.57;;;4.37;;
31482;SDS011;18103;52.246;8.052;2023-05-21T06:50:47;8.47;;;4.73;;
31482;SDS011;18103;52.246;8.052;2023-05-21T06:53:15;7.07;;;4.17;;
31482;SDS011;18103;52.246;8.052;2023-05-21T06:55:43;9.50;;;4.83;;
31482;SDS011;18103;52.246;8.052;2023-05-21T06:58:11;8.83;;;4.50;;
31482;SDS011;18103;52.246;8.052;2023-05-21T07:00:36;9.93;;;4.90;;
31482;SDS011;18103;52.246;8.052;2023-05-21T07:03:02;10.70;;;5.27;;
31482;SDS011;18103;52.246;8.052;2023-05-21T07:05:27;8.23;;;5.10;;
31482;SDS011;18103;52.246;8.052;2023-05-21T07:07:53;11.33;;;4.80;;
31482;SDS011;18103;52.246;8.052;2023-05-21T07:10:21;7.90;;;4.97;;
31482;SDS011;18103;52.246;8.052;2023-05-21T07:12:49;10.43;;;5.20;;
31482;SDS011;18103;52.246;8.052;2023-05-21T07:15:16;7.57;;;4.93;;
31482;SDS011;18103;52.246;8.052;2023-05-21T07:17:44;9.00;;;5.17;;
31482;SDS011;18103;52.246;8.052;2023-05-21T07:20:12;7.47;;;4.73;;
31482;SDS011;18103;52.246;8.052;2023-05-21T07:22:37;7.97;;;4.90;;
31482;SDS011;18103;52.246;8.052;2023-05-21T07:25:03;11.53;;;5.43;;
31482;SDS011;18103;52.246;8.052;2023-05-21T07:27:32;8.27;;;4.73;;
31482;SDS011;18103;52.246;8.052;2023-05-21T07:29:57;9.97;;;5.43;;
31482;SDS011;18103;52.246;8.052;2023-05-21T07:32:25;11.17;;;4.93;;
31482;SDS011;18103;52.246;8.052;2023-05-21T07:34:52;13.80;;;5.57;;
31482;SDS011;18103;52.246;8.052;2023-05-21T07:37:18;11.63;;;5.27;;
31482;SDS011;18103;52.246;8.052;2023-05-21T07:39:44;14.87;;;5.47;;
31482;SDS011;18103;52.246;8.052;2023-05-21T07:42:10;8.07;;;4.43;;
31482;SDS011;18103;52.246;8.052;2023-05-21T07:44:35;9.83;;;5.77;;
31482;SDS011;18103;52.246;8.052;2023-05-21T07:47:05;10.10;;;5.13;;
31482;SDS011;18103;52.246;8.052;2023-05-21T07:49:33;11.07;;;5.70;;
31482;SDS011;18103;52.246;8.052;2023-05-21T07:52:00;11.10;;;5.57;;
31482;SDS011;18103;52.246;8.052;2023-05-21T07:54:30;10.50;;;6.13;;
31482;SDS011;18103;52.246;8.052;2023-05-21T07:56:56;10.47;;;6.63;;
31482;SDS011;18103;52.246;8.052;2023-05-21T07:59:21;12.30;;;6.73;;
31482;SDS011;18103;52.246;8.052;2023-05-21T08:01:46;12.00;;;5.90;;
31482;SDS011;18103;52.246;8.052;2023-05-21T08:04:14;13.53;;;6.10;;
31482;SDS011;18103;52.246;8.052;2023-05-21T08:06:40;9.87;;;5.90;;
31482;SDS011;18103;52.246;8.052;2023-05-21T08:09:08;12.97;;;6.27;;
31482;SDS011;18103;52.246;8.052;2023-05-21T08:11:36;12.73;;;6.30;;
31482;SDS011;18103;52.246;8.052;2023-05-21T08:14:01;10.47;;;6.47;;
31482;SDS011;18103;52.246;8.052;2023-05-21T08:16:29;9.03;;;5.83;;
31482;SDS011;18103;52.246;8.052;2023-05-21T08:18:55;10.80;;;6.10;;
31482;SDS011;18103;52.246;8.052;2023-05-21T08:21:25;12.63;;;6.03;;
31482;SDS011;18103;52.246;8.052;2023-05-21T08:23:52;10.97;;;6.60;;
31482;SDS011;18103;52.246;8.052;2023-05-21T08:26:18;10.40;;;6.43;;
31482;SDS011;18103;52.246;8.052;2023-05-21T08:28:48;12.50;;;6.67;;
31482;SDS011;18103;52.246;8.052;2023-05-21T08:31:16;11.63;;;6.67;;
31482;SDS011;18103;52.246;8.052;2023-05-21T08:33:48;13.00;;;7.10;;
31482;SDS011;18103;52.246;8.052;2023-05-21T08:36:15;12.30;;;7.13;;
31482;SDS011;18103;52.246;8.052;2023-05-21T08:38:43;12.47;;;7.03;;
31482;SDS011;18103;52.246;8.052;2023-05-21T08:41:10;11.37;;;7.23;;
31482;SDS011;18103;52.246;8.052;2023-05-21T08:43:38;18.30;;;7.40;;
31482;SDS011;18103;52.246;8.052;2023-05-21T08:46:04;14.27;;;7.60;;
31482;SDS011;18103;52.246;8.052;2023-05-21T08:48:30;16.43;;;7.57;;
31482;SDS011;18103;52.246;8.052;2023-05-21T08:50:58;11.87;;;7.60;;
31482;SDS011;18103;52.246;8.052;2023-05-21T08:53:27;13.73;;;8.13;;
31482;SDS011;18103;52.246;8.052;2023-05-21T08:55:53;14.80;;;8.13;;
31482;SDS011;18103;52.246;8.052;2023-05-21T08:58:22;13.40;;;8.43;;
31482;SDS011;18103;52.246;8.052;2023-05-21T09:00:47;12.00;;;7.23;;
31482;SDS011;18103;52.246;8.052;2023-05-21T09:03:13;14.60;;;7.70;;
31482;SDS011;18103;52.246;8.052;2023-05-21T09:05:39;18.27;;;7.97;;
31482;SDS011;18103;52.246;8.052;2023-05-21T09:08:12;12.63;;;7.93;;
31482;SDS011;18103;52.246;8.052;2023-05-21T09:10:55;13.20;;;7.83;;
31482;SDS011;18103;52.246;8.052;2023-05-21T09:13:21;12.37;;;7.87;;
31482;SDS011;18103;52.246;8.052;2023-05-21T09:15:51;17.87;;;8.03;;
31482;SDS011;18103;52.246;8.052;2023-05-21T09:18:18;15.20;;;7.63;;
31482;SDS011;18103;52.246;8.052;2023-05-21T09:20:46;16.40;;;7.97;;
31482;SDS011;18103;52.246;8.052;2023-05-21T09:23:11;13.17;;;8.07;;
31482;SDS011;18103;52.246;8.052;2023-05-21T09:25:44;15.30;;;9.13;;
31482;SDS011;18103;52.246;8.052;2023-05-21T09:28:11;14.13;;;9.10;;
31482;SDS011;18103;52.246;8.052;2023-05-21T09:30:47;17.67;;;9.07;;
31482;SDS011;18103;52.246;8.052;2023-05-21T09:33:25;24.33;;;9.63;;
31482;SDS011;18103;52.246;8.052;2023-05-21T09:35:53;14.17;;;8.63;;
31482;SDS011;18103;52.246;8.052;2023-05-21T09:38:20;19.93;;;8.77;;
31482;SDS011;18103;52.246;8.052;2023-05-21T09:40:52;19.80;;;9.57;;
31482;SDS011;18103;52.246;8.052;2023-05-21T09:43:20;16.00;;;9.17;;
31482;SDS011;18103;52.246;8.052;2023-05-21T09:45:49;17.50;;;9.03;;
31482;SDS011;18103;52.246;8.052;2023-05-21T09:48:18;17.87;;;9.50;;
31482;SDS011;18103;52.246;8.052;2023-05-21T09:51:13;18.50;;;9.80;;
31482;SDS011;18103;52.246;8.052;2023-05-21T09:53:56;18.70;;;9.90;;
31482;SDS011;18103;52.246;8.052;2023-05-21T09:56:23;15.83;;;9.27;;
31482;SDS011;18103;52.246;8.052;2023-05-21T09:58:59;14.83;;;8.33;;
31482;SDS011;18103;52.246;8.052;2023-05-21T10:01:29;12.23;;;8.43;;
31482;SDS011;18103;52.246;8.052;2023-05-21T10:04:01;16.97;;;9.70;;
31482;SDS011;18103;52.246;8.052;2023-05-21T10:06:33;18.03;;;9.10;;
31482;SDS011;18103;52.246;8.052;2023-05-21T10:09:02;19.97;;;10.67;;
31482;SDS011;18103;52.246;8.052;2023-05-21T10:11:34;17.53;;;10.63;;
31482;SDS011;18103;52.246;8.052;2023-05-21T10:14:04;18.13;;;9.87;;
31482;SDS011;18103;52.246;8.052;2023-05-21T10:16:33;16.90;;;8.43;;
31482;SDS011;18103;52.246;8.052;2023-05-21T10:19:02;16.10;;;9.70;;
31482;SDS011;18103;52.246;8.052;2023-05-21T10:21:35;18.00;;;10.10;;
31482;SDS011;18103;52.246;8.052;2023-05-21T10:24:01;18.53;;;9.40;;
31482;SDS011;18103;52.246;8.052;2023-05-21T10:26:29;17.83;;;9.60;;
31482;SDS011;18103;52.246;8.052;2023-05-21T10:28:55;16.70;;;9.67;;
31482;SDS011;18103;52.246;8.052;2023-05-21T10:31:24;21.37;;;10.53;;
31482;SDS011;18103;52.246;8.052;2023-05-21T10:33:51;22.10;;;11.13;;
31482;SDS011;18103;52.246;8.052;2023-05-21T10:36:20;18.33;;;10.03;;
31482;SDS011;18103;52.246;8.052;2023-05-21T10:38:48;18.53;;;10.37;;
31482;SDS011;18103;52.246;8.052;2023-05-21T10:41:16;20.00;;;11.50;;
31482;SDS011;18103;52.246;8.052;2023-05-21T10:52:30;16.50;;;9.90;;
31482;SDS011;18103;52.246;8.052;2023-05-21T11:00:46;17.57;;;10.57;;
31482;SDS011;18103;52.246;8.052;2023-05-21T11:03:12;17.17;;;10.13;;
31482;SDS011;18103;52.246;8.052;2023-05-21T11:05:54;15.80;;;10.27;;
31482;SDS011;18103;52.246;8.052;2023-05-21T11:08:23;20.27;;;10.77;;
31482;SDS011;18103;52.246;8.052;2023-05-21T11:10:53;20.13;;;11.27;;
31482;SDS011;18103;52.246;8.052;2023-05-21T11:13:21;19.00;;;10.10;;
31482;SDS011;18103;52.246;8.052;2023-05-21T11:18:24;16.53;;;10.40;;
31482;SDS011;18103;52.246;8.052;2023-05-21T11:21:13;19.70;;;10.07;;
31482;SDS011;18103;52.246;8.052;2023-05-21T11:26:18;18.03;;;9.87;;
31482;SDS011;18103;52.246;8.052;2023-05-21T11:28:45;14.93;;;9.63;;
31482;SDS011;18103;52.246;8.052;2023-05-21T11:31:23;16.27;;;11.03;;
31482;SDS011;18103;52.246;8.052;2023-05-21T11:36:40;19.53;;;10.70;;
31482;SDS011;18103;52.246;8.052;2023-05-21T11:39:08;21.63;;;10.03;;
31482;SDS011;18103;52.246;8.052;2023-05-21T11:47:12;16.43;;;9.33;;
31482;SDS011;18103;52.246;8.052;2023-05-21T11:49:42;15.80;;;10.07;;
31482;SDS011;18103;52.246;8.052;2023-05-21T11:52:10;20.40;;;10.23;;
31482;SDS011;18103;52.246;8.052;2023-05-21T11:54:41;17.20;;;10.37;;
31482;SDS011;18103;52.246;8.052;2023-05-21T11:57:14;14.10;;;9.53;;
31482;SDS011;18103;52.246;8.052;2023-05-21T11:59:41;15.77;;;9.53;;
31482;SDS011;18103;52.246;8.052;2023-05-21T12:02:12;13.57;;;9.30;;
31482;SDS011;18103;52.246;8.052;2023-05-21T12:04:41;16.03;;;10.50;;
31482;SDS011;18103;52.246;8.052;2023-05-21T12:07:09;14.63;;;9.97;;
31482;SDS011;18103;52.246;8.052;2023-05-21T12:09:37;17.13;;;9.87;;
31482;SDS011;18103;52.246;8.052;2023-05-21T12:12:07;16.00;;;10.10;;
31482;SDS011;18103;52.246;8.052;2023-05-21T12:14:33;15.93;;;10.20;;
31482;SDS011;18103;52.246;8.052;2023-05-21T12:16:59;18.17;;;11.00;;
31482;SDS011;18103;52.246;8.052;2023-05-21T12:19:31;15.87;;;10.30;;
31482;SDS011;18103;52.246;8.052;2023-05-21T12:21:58;16.77;;;10.03;;
31482;SDS011;18103;52.246;8.052;2023-05-21T12:24:26;14.53;;;10.23;;
31482;SDS011;18103;52.246;8.052;2023-05-21T12:26:52;15.50;;;10.60;;
31482;SDS011;18103;52.246;8.052;2023-05-21T12:29:19;16.03;;;11.07;;
31482;SDS011;18103;52.246;8.052;2023-05-21T12:31:48;13.53;;;10.30;;
31482;SDS011;18103;52.246;8.052;2023-05-21T12:34:14;16.43;;;10.43;;
31482;SDS011;18103;52.246;8.052;2023-05-21T12:36:43;13.33;;;9.90;;
31482;SDS011;18103;52.246;8.052;2023-05-21T12:39:15;13.77;;;10.50;;
31482;SDS011;18103;52.246;8.052;2023-05-21T12:41:41;16.33;;;10.23;;
31482;SDS011;18103;52.246;8.052;2023-05-21T12:44:10;17.00;;;10.13;;
31482;SDS011;18103;52.246;8.052;2023-05-21T12:46:36;11.53;;;8.87;;
31482;SDS011;18103;52.246;8.052;2023-05-21T12:49:01;17.23;;;10.37;;
31482;SDS011;18103;52.246;8.052;2023-05-21T12:51:36;16.47;;;10.67;;
31482;SDS011;18103;52.246;8.052;2023-05-21T12:54:05;14.30;;;9.77;;
31482;SDS011;18103;52.246;8.052;2023-05-21T12:56:44;13.53;;;9.47;;
31482;SDS011;18103;52.246;8.052;2023-05-21T12:59:13;15.33;;;9.23;;
31482;SDS011;18103;52.246;8.052;2023-05-21T13:01:39;13.93;;;9.23;;
31482;SDS011;18103;52.246;8.052;2023-05-21T13:04:04;19.23;;;8.73;;
31482;SDS011;18103;52.246;8.052;2023-05-21T13:06:40;12.57;;;9.43;;
31482;SDS011;18103;52.246;8.052;2023-05-21T13:09:08;14.77;;;9.03;;
31482;SDS011;18103;52.246;8.052;2023-05-21T13:11:33;15.10;;;10.20;;
31482;SDS011;18103;52.246;8.052;2023-05-21T13:14:02;14.77;;;9.73;;
31482;SDS011;18103;52.246;8.052;2023-05-21T13:16:29;18.40;;;10.40;;
31482;SDS011;18103;52.246;8.052;2023-05-21T13:18:57;13.87;;;9.47;;
31482;SDS011;18103;52.246;8.052;2023-05-21T13:21:25;15.13;;;9.10;;
31482;SDS011;18103;52.246;8.052;2023-05-21T13:23:50;24.60;;;9.67;;
31482;SDS011;18103;52.246;8.052;2023-05-21T13:26:15;13.40;;;8.70;;
31482;SDS011;18103;52.246;8.052;2023-05-21T13:28:41;13.53;;;9.20;;
31482;SDS011;18103;52.246;8.052;2023-05-21T13:31:06;14.00;;;9.93;;
31482;SDS011;18103;52.246;8.052;2023-05-21T13:33:31;16.13;;;10.23;;
31482;SDS011;18103;52.246;8.052;2023-05-21T13:35:57;17.23;;;10.00;;
31482;SDS011;18103;52.246;8.052;2023-05-21T13:38:22;13.47;;;10.00;;
31482;SDS011;18103;52.246;8.052;2023-05-21T13:40:47;15.10;;;10.00;;
31482;SDS011;18103;52.246;8.052;2023-05-21T13:43:13;15.07;;;9.83;;
31482;SDS011;18103;52.246;8.052;2023-05-21T13:45:39;12.43;;;9.03;;
31482;SDS011;18103;52.246;8.052;2023-05-21T13:48:04;14.87;;;10.30;;
31482;SDS011;18103;52.246;8.052;2023-05-21T13:50:30;15.67;;;10.20;;
31482;SDS011;18103;52.246;8.052;2023-05-21T13:52:57;15.20;;;9.93;;
31482;SDS011;18103;52.246;8.052;2023-05-21T13:55:23;23.70;;;11.13;;
31482;SDS011;18103;52.246;8.052;2023-05-21T13:57:48;19.50;;;10.40;;
31482;SDS011;18103;52.246;8.052;2023-05-21T14:00:13;13.90;;;9.60;;
31482;SDS011;18103;52.246;8.052;2023-05-21T14:02:42;16.40;;;9.97;;
31482;SDS011;18103;52.246;8.052;2023-05-21T14:05:13;12.43;;;10.20;;
31482;SDS011;18103;52.246;8.052;2023-05-21T14:07:39;13.50;;;10.23;;
31482;SDS011;18103;52.246;8.052;2023-05-21T14:10:04;15.87;;;10.13;;
31482;SDS011;18103;52.246;8.052;2023-05-21T14:12:30;15.40;;;9.80;;
31482;SDS011;18103;52.246;8.052;2023-05-21T14:14:57;14.53;;;9.80;;
31482;SDS011;18103;52.246;8.052;2023-05-21T14:17:22;14.53;;;11.37;;
31482;SDS011;18103;52.246;8.052;2023-05-21T14:19:51;16.20;;;10.60;;
31482;SDS011;18103;52.246;8.052;2023-05-21T14:22:19;15.37;;;11.33;;
31482;SDS011;18103;52.246;8.052;2023-05-21T14:24:47;20.83;;;11.07;;
31482;SDS011;18103;52.246;8.052;2023-05-21T14:27:13;15.23;;;10.00;;
31482;SDS011;18103;52.246;8.052;2023-05-21T14:29:39;17.63;;;11.63;;
31482;SDS011;18103;52.246;8.052;2023-05-21T14:32:07;17.47;;;11.27;;
31482;SDS011;18103;52.246;8.052;2023-05-21T14:34:32;16.33;;;9.87;;
31482;SDS011;18103;52.246;8.052;2023-05-21T14:37:04;20.07;;;11.20;;
31482;SDS011;18103;52.246;8.052;2023-05-21T14:39:30;16.13;;;10.37;;
31482;SDS011;18103;52.246;8.052;2023-05-21T14:41:55;16.17;;;11.03;;
31482;SDS011;18103;52.246;8.052;2023-05-21T14:44:21;14.77;;;10.63;;
31482;SDS011;18103;52.246;8.052;2023-05-21T14:46:49;15.17;;;11.23;;
31482;SDS011;18103;52.246;8.052;2023-05-21T14:49:15;17.40;;;11.00;;
31482;SDS011;18103;52.246;8.052;2023-05-21T14:51:45;16.27;;;11.20;;
31482;SDS011;18103;52.246;8.052;2023-05-21T14:54:11;15.37;;;11.00;;
31482;SDS011;18103;52.246;8.052;2023-05-21T14:56:39;19.47;;;11.80;;
31482;SDS011;18103;52.246;8.052;2023-05-21T14:59:09;13.77;;;10.13;;
31482;SDS011;18103;52.246;8.052;2023-05-21T15:01:39;17.40;;;11.50;;
31482;SDS011;18103;52.246;8.052;2023-05-21T15:04:04;15.47;;;10.93;;
31482;SDS011;18103;52.246;8.052;2023-05-21T15:06:31;17.33;;;11.37;;
31482;SDS011;18103;52.246;8.052;2023-05-21T15:08:59;17.57;;;12.00;;
31482;SDS011;18103;52.246;8.052;2023-05-21T15:11:24;17.00;;;10.80;;
31482;SDS011;18103;52.246;8.052;2023-05-21T15:13:52;17.37;;;10.90;;
31482;SDS011;18103;52.246;8.052;2023-05-21T15:16:18;16.33;;;11.27;;